USTRANSCOM 7510


ETAR
Ramstein Air Force Base
Ramstein, DE
KWRI
Joint Base McGuire Dix Lakehurst
Wrightstown, US

Route Details

Aircraft Information
Primary: Boeing 767-300BDSF
Backup: Boeing 757-200SF
Route Data
Distance: 3394nm
Sched. Duration: 8h 30m
Avg. Duration: 8h 46m (+16m)
Times Flown: 1
Recm'd Route: Not Available
Planned Altitude: 32,000ft
Origin Wx: ETAR 222013Z AUTO 22005KT 9999 -RA SCT085 15/15 A2997 RMK AO2 RAB13 SLP148 FZRANO $
Dest. Wx: KWRI 221956Z AUTO 00000KT 10SM FEW024 26/19 A3020 RMK AO2 SLP226 T02570188 $
Notes: USTRANSCOM CONTRACT FLIGHT

Financial History
Total Freight: 110,252lbs
Average Load: 110,252lbs/flt
Fuel Used: 101,341lbs
Avg. Fuel Used: 101,341lbs/flt
Fuel Expense: $81,073
Avg. Fuel Expense: $81,073
Avg. Fuel Cost: $0.80/lbs
Total Gross Income: $248,067
Pilot Pay: $259
Total Expenses: $26,843
Total Revenue: $137,960
Average Revenue: $248,067.00